createdAt,value
2022-09-09T00:01:39.990Z,17.56
2022-09-09T00:04:06.196Z,17.58
2022-09-09T00:06:32.363Z,17.52
2022-09-09T00:08:58.578Z,17.52
2022-09-09T00:11:29.367Z,17.59
2022-09-09T00:13:57.436Z,17.59
2022-09-09T00:16:23.667Z,17.55
2022-09-09T00:18:49.857Z,17.53
2022-09-09T00:21:16.016Z,17.45
2022-09-09T00:23:42.112Z,17.40
2022-09-09T00:26:08.305Z,17.45
2022-09-09T00:28:34.604Z,17.33
2022-09-09T00:31:00.815Z,17.27
2022-09-09T00:33:26.956Z,17.21
2022-09-09T00:35:53.065Z,17.18
2022-09-09T00:38:19.171Z,17.25
2022-09-09T00:40:45.259Z,17.25
2022-09-09T00:43:11.384Z,17.31
2022-09-09T00:45:37.491Z,17.35
2022-09-09T00:48:03.594Z,17.38
2022-09-09T00:50:29.753Z,17.38
2022-09-09T00:52:55.850Z,17.31
2022-09-09T00:55:21.956Z,17.32
2022-09-09T00:57:48.586Z,17.32
2022-09-09T01:00:14.702Z,17.32
2022-09-09T01:02:40.844Z,17.20
2022-09-09T01:05:07.006Z,17.18
2022-09-09T01:07:33.104Z,17.05
2022-09-09T01:09:59.200Z,17.08
2022-09-09T01:12:25.305Z,17.07
2022-09-09T01:14:51.397Z,17.02
2022-09-09T01:17:17.537Z,17.07
2022-09-09T01:19:43.678Z,17.01
2022-09-09T01:22:09.756Z,16.98
2022-09-09T01:24:35.868Z,16.99
2022-09-09T01:27:02.007Z,16.94
2022-09-09T01:29:28.106Z,16.87
2022-09-09T01:31:54.191Z,16.83
2022-09-09T01:34:20.312Z,16.86
2022-09-09T01:36:46.397Z,16.85
2022-09-09T01:39:12.508Z,16.82
2022-09-09T01:41:38.918Z,16.78
2022-09-09T01:44:05.017Z,16.72
2022-09-09T01:46:31.195Z,16.69
2022-09-09T01:48:57.349Z,16.73
2022-09-09T01:51:23.437Z,16.80
2022-09-09T01:53:49.534Z,16.76
2022-09-09T01:56:15.637Z,16.77
2022-09-09T01:58:43.600Z,16.81
2022-09-09T02:01:09.724Z,16.88
2022-09-09T02:03:36.237Z,16.86
2022-09-09T02:06:02.322Z,16.77
2022-09-09T02:08:28.400Z,16.76
2022-09-09T02:10:54.508Z,16.78
2022-09-09T02:13:20.592Z,16.84
2022-09-09T02:15:46.694Z,16.86
2022-09-09T02:18:13.286Z,16.74
2022-09-09T02:20:39.413Z,16.74
2022-09-09T02:23:05.531Z,16.75
2022-09-09T02:25:31.672Z,16.73
2022-09-09T02:27:57.753Z,16.65
2022-09-09T02:30:23.870Z,16.65
2022-09-09T02:32:50.006Z,16.68
2022-09-09T02:35:16.094Z,16.65
2022-09-09T02:37:42.181Z,16.61
2022-09-09T02:40:08.317Z,16.61
2022-09-09T02:42:34.452Z,16.58
2022-09-09T02:45:00.538Z,16.53
2022-09-09T02:47:26.670Z,16.53
2022-09-09T02:49:52.783Z,16.56
2022-09-09T02:52:18.871Z,16.52
2022-09-09T02:54:44.964Z,16.37
2022-09-09T02:57:11.061Z,16.46
2022-09-09T02:59:37.164Z,16.38
2022-09-09T03:02:03.340Z,16.36
2022-09-09T03:04:29.466Z,16.43
2022-09-09T03:06:55.566Z,16.26
2022-09-09T03:09:21.682Z,16.36
2022-09-09T03:11:47.770Z,16.33
2022-09-09T03:14:13.863Z,16.26
2022-09-09T03:16:40.011Z,16.29
2022-09-09T03:19:06.147Z,16.36
2022-09-09T03:21:32.245Z,16.39
2022-09-09T03:23:58.821Z,16.41
2022-09-09T03:26:24.910Z,16.26
2022-09-09T03:28:51.031Z,16.25
2022-09-09T03:31:17.162Z,16.27
2022-09-09T03:33:43.290Z,16.33
2022-09-09T03:36:09.386Z,16.35
2022-09-09T03:38:35.662Z,16.33
2022-09-09T03:41:01.908Z,16.27
2022-09-09T03:43:28.020Z,16.25
2022-09-09T03:45:54.177Z,16.25
2022-09-09T03:48:20.302Z,16.26
2022-09-09T03:50:46.390Z,16.26
2022-09-09T03:53:12.501Z,16.28
2022-09-09T03:55:38.590Z,16.17
2022-09-09T03:58:04.693Z,16.17
2022-09-09T04:00:30.798Z,16.17
2022-09-09T04:02:56.889Z,16.14
2022-09-09T04:05:22.990Z,16.00
2022-09-09T04:07:49.149Z,16.03
2022-09-09T04:10:15.239Z,16.11
2022-09-09T04:12:41.328Z,16.03
2022-09-09T04:15:07.438Z,15.98
2022-09-09T04:17:33.522Z,16.13
2022-09-09T04:19:59.621Z,16.15
2022-09-09T04:22:25.730Z,16.14
2022-09-09T04:24:51.829Z,16.19
2022-09-09T04:27:17.920Z,16.22
2022-09-09T04:29:44.027Z,16.08
2022-09-09T04:32:10.118Z,16.20
2022-09-09T04:34:36.206Z,16.09
2022-09-09T04:37:02.331Z,16.11
2022-09-09T04:39:28.428Z,16.05
2022-09-09T04:41:54.516Z,15.98
2022-09-09T04:44:20.613Z,16.11
2022-09-09T04:46:46.702Z,16.16
2022-09-09T04:49:15.166Z,16.12
2022-09-09T04:51:41.548Z,16.05
2022-09-09T04:54:07.645Z,16.09
2022-09-09T04:56:33.744Z,16.13
2022-09-09T04:58:59.851Z,16.13
2022-09-09T05:01:26.038Z,16.11
2022-09-09T05:03:52.170Z,16.14
2022-09-09T05:06:18.272Z,16.13
2022-09-09T05:08:44.386Z,16.06
2022-09-09T05:11:10.476Z,16.05
2022-09-09T05:13:40.898Z,16.11
2022-09-09T05:16:07.626Z,16.19
2022-09-09T05:18:33.865Z,16.21
2022-09-09T05:21:00.000Z,16.25
2022-09-09T05:23:26.106Z,16.26
2022-09-09T05:25:52.192Z,16.17
2022-09-09T05:28:18.334Z,16.24
2022-09-09T05:30:44.467Z,16.24
2022-09-09T05:33:10.553Z,16.26
2022-09-09T05:35:36.665Z,16.26
2022-09-09T05:38:02.748Z,16.34
2022-09-09T05:40:28.824Z,16.18
2022-09-09T05:42:54.921Z,16.25
2022-09-09T05:45:21.003Z,16.23
2022-09-09T05:47:47.140Z,16.34
2022-09-09T05:50:13.540Z,16.35
2022-09-09T05:52:39.627Z,16.40
2022-09-09T05:55:05.716Z,16.43
2022-09-09T05:57:31.817Z,16.42
2022-09-09T05:59:57.893Z,16.47
2022-09-09T06:02:24.140Z,16.47
2022-09-09T06:04:50.336Z,16.46
2022-09-09T06:07:16.432Z,16.49
2022-09-09T06:09:42.515Z,16.57
2022-09-09T06:12:08.621Z,16.58
2022-09-09T06:14:34.705Z,16.59
2022-09-09T06:17:00.791Z,16.60
2022-09-09T06:19:26.902Z,16.65
2022-09-09T06:21:53.004Z,16.68
2022-09-09T06:24:19.092Z,16.61
2022-09-09T06:26:45.291Z,16.64
2022-09-09T06:29:11.377Z,16.68
2022-09-09T06:31:37.544Z,16.64
2022-09-09T06:34:03.682Z,16.58
2022-09-09T06:36:29.779Z,16.68
2022-09-09T06:38:55.874Z,16.68
2022-09-09T06:41:21.990Z,16.71
2022-09-09T06:43:48.079Z,16.76
2022-09-09T06:46:14.203Z,16.78
2022-09-09T06:48:40.350Z,16.76
2022-09-09T06:51:06.456Z,16.67
2022-09-09T06:53:32.542Z,16.67
2022-09-09T06:55:58.636Z,16.76
2022-09-09T06:58:24.764Z,16.81
2022-09-09T07:00:50.925Z,16.74
2022-09-09T07:03:17.073Z,16.71
2022-09-09T07:05:43.160Z,16.70
2022-09-09T07:08:09.241Z,16.68
2022-09-09T07:10:35.345Z,16.78
2022-09-09T07:13:01.438Z,16.79
2022-09-09T07:15:27.524Z,16.79
2022-09-09T07:17:53.779Z,16.78
2022-09-09T07:20:19.867Z,16.88
2022-09-09T07:22:45.958Z,16.95
2022-09-09T07:25:12.063Z,16.93
2022-09-09T07:27:38.163Z,16.93
2022-09-09T07:30:04.259Z,17.01
2022-09-09T07:32:30.386Z,17.07
2022-09-09T07:34:56.493Z,16.97
2022-09-09T07:37:22.570Z,17.10
2022-09-09T07:39:48.723Z,17.01
2022-09-09T07:42:14.853Z,17.04
2022-09-09T07:44:40.959Z,17.02
2022-09-09T07:47:07.062Z,16.92
2022-09-09T07:49:33.186Z,16.99
2022-09-09T07:51:59.299Z,16.98
2022-09-09T07:54:25.972Z,17.03
2022-09-09T07:56:52.089Z,17.02
2022-09-09T07:59:18.165Z,17.06
2022-09-09T08:01:44.336Z,17.15
2022-09-09T08:04:10.470Z,17.16
2022-09-09T08:06:36.556Z,16.95
2022-09-09T08:09:02.670Z,17.25
2022-09-09T08:11:28.757Z,17.36
2022-09-09T08:13:57.896Z,17.35
2022-09-09T08:16:26.417Z,17.46
2022-09-09T08:18:52.502Z,17.55
2022-09-09T08:21:18.591Z,17.48
2022-09-09T08:23:44.834Z,17.64
2022-09-09T08:26:10.928Z,17.64
2022-09-09T08:28:37.046Z,17.67
2022-09-09T08:31:03.229Z,17.57
2022-09-09T08:33:29.520Z,17.76
2022-09-09T08:35:55.666Z,17.88
2022-09-09T08:38:21.757Z,17.95
2022-09-09T08:40:47.856Z,17.82
2022-09-09T08:43:13.976Z,17.86
2022-09-09T08:45:40.105Z,17.90
2022-09-09T08:48:06.206Z,17.92
2022-09-09T08:50:32.294Z,17.91
2022-09-09T08:52:58.559Z,17.93
2022-09-09T08:55:24.682Z,18.10
2022-09-09T08:57:50.771Z,18.22
2022-09-09T09:00:16.955Z,18.14
2022-09-09T09:02:43.130Z,18.20
2022-09-09T09:05:09.254Z,18.25
2022-09-09T09:07:35.461Z,18.25
2022-09-09T09:10:01.547Z,18.28
2022-09-09T09:12:27.639Z,18.34
2022-09-09T09:14:53.746Z,18.29
2022-09-09T09:17:19.828Z,18.48
2022-09-09T09:19:45.923Z,18.46
2022-09-09T09:22:12.038Z,18.45
2022-09-09T09:24:38.126Z,18.42
2022-09-09T09:27:04.250Z,18.50
2022-09-09T09:29:30.384Z,18.66
2022-09-09T09:31:56.478Z,18.67
2022-09-09T09:34:22.569Z,18.64
2022-09-09T09:36:48.714Z,18.83
2022-09-09T09:42:03.880Z,18.94
2022-09-09T09:44:32.644Z,18.66
2022-09-09T09:46:58.783Z,18.67
2022-09-09T09:49:24.919Z,18.98
2022-09-09T09:51:51.010Z,18.95
2022-09-09T09:54:17.137Z,18.88
2022-09-09T09:56:43.265Z,19.19
2022-09-09T09:59:17.885Z,19.14
2022-09-09T10:01:49.773Z,19.20
2022-09-09T10:04:15.926Z,19.27
2022-09-09T10:06:42.048Z,19.51
2022-09-09T10:09:08.154Z,19.51
2022-09-09T10:11:34.259Z,19.52
2022-09-09T10:14:00.340Z,19.61
2022-09-09T10:16:26.437Z,19.68
2022-09-09T10:18:52.532Z,19.78
2022-09-09T10:21:18.620Z,19.78
2022-09-09T10:23:44.741Z,19.76
2022-09-09T10:26:10.856Z,20.09
2022-09-09T10:28:37.134Z,20.18
2022-09-09T10:31:03.825Z,20.18
2022-09-09T10:33:30.038Z,20.22
2022-09-09T10:35:56.166Z,20.40
2022-09-09T10:38:22.261Z,20.46
2022-09-09T10:40:48.351Z,20.25
2022-09-09T10:43:14.456Z,20.07
2022-09-09T10:45:40.582Z,20.27
2022-09-09T10:48:06.667Z,20.37
2022-09-09T10:50:59.975Z,20.12
2022-09-09T10:53:18.858Z,20.38
2022-09-09T10:55:44.966Z,20.39
2022-09-09T10:58:11.061Z,20.47
2022-09-09T11:00:37.449Z,20.50
2022-09-09T11:03:03.538Z,20.11
2022-09-09T11:05:29.630Z,20.05
2022-09-09T11:07:55.757Z,20.01
2022-09-09T11:10:21.919Z,19.94
2022-09-09T11:12:48.007Z,19.58
2022-09-09T11:15:14.156Z,19.51
2022-09-09T11:17:40.243Z,19.50
2022-09-09T11:20:06.338Z,19.33
2022-09-09T11:22:32.481Z,19.50
2022-09-09T11:24:58.607Z,19.53
2022-09-09T11:27:24.751Z,19.74
2022-09-09T11:29:50.879Z,19.72
2022-09-09T11:32:17.000Z,19.62
2022-09-09T11:34:43.132Z,19.70
2022-09-09T11:37:09.752Z,19.94
2022-09-09T11:39:35.864Z,20.06
2022-09-09T11:42:02.008Z,20.05
2022-09-09T11:44:28.171Z,20.22
2022-09-09T11:46:54.316Z,20.12
2022-09-09T11:49:20.417Z,20.13
2022-09-09T11:51:46.539Z,20.21
2022-09-09T11:54:12.650Z,19.94
2022-09-09T11:56:38.796Z,19.85
2022-09-09T11:59:04.998Z,19.93
2022-09-09T12:01:31.091Z,19.91
2022-09-09T12:03:57.221Z,19.94
2022-09-09T12:06:23.416Z,20.28
2022-09-09T12:08:49.534Z,20.44
2022-09-09T12:11:15.626Z,20.68
2022-09-09T12:13:41.729Z,20.51
2022-09-09T12:16:07.808Z,20.41
2022-09-09T12:18:33.969Z,20.71
2022-09-09T12:21:00.101Z,20.81
2022-09-09T12:23:26.196Z,20.91
2022-09-09T12:25:52.292Z,20.98
2022-09-09T12:28:18.414Z,20.93
2022-09-09T12:30:44.586Z,21.22
2022-09-09T12:33:10.683Z,21.36
2022-09-09T12:35:36.784Z,21.33
2022-09-09T12:38:02.878Z,21.49
2022-09-09T12:40:28.978Z,21.18
2022-09-09T12:42:55.138Z,21.45
2022-09-09T12:45:21.242Z,21.37
2022-09-09T12:47:47.329Z,21.30
2022-09-09T12:50:13.459Z,21.39
2022-09-09T12:52:39.561Z,21.37
2022-09-09T12:55:05.664Z,21.41
2022-09-09T12:57:31.778Z,21.60
2022-09-09T12:59:57.869Z,21.52
2022-09-09T13:02:24.000Z,21.65
2022-09-09T13:04:50.251Z,21.66
2022-09-09T13:07:16.366Z,21.75
2022-09-09T13:09:42.455Z,22.00
2022-09-09T13:12:08.573Z,21.79
2022-09-09T13:14:34.670Z,21.69
2022-09-09T13:17:00.898Z,21.76
2022-09-09T13:19:27.047Z,21.50
2022-09-09T13:21:53.141Z,21.71
2022-09-09T13:24:19.245Z,21.89
2022-09-09T13:26:45.345Z,21.36
2022-09-09T13:29:11.565Z,21.61
2022-09-09T13:31:37.645Z,21.60
2022-09-09T13:34:03.737Z,21.79
2022-09-09T13:36:29.825Z,21.74
2022-09-09T13:38:55.905Z,21.67
2022-09-09T13:41:22.095Z,21.67
2022-09-09T13:43:48.198Z,21.57
2022-09-09T13:46:14.354Z,21.39
2022-09-09T13:48:40.505Z,21.44
2022-09-09T13:51:06.584Z,21.47
2022-09-09T13:53:32.734Z,21.63
2022-09-09T13:55:58.891Z,21.45
2022-09-09T13:58:24.990Z,21.48
2022-09-09T14:00:51.140Z,21.34
2022-09-09T14:03:17.274Z,21.19
2022-09-09T14:05:43.355Z,21.12
2022-09-09T14:08:09.459Z,21.17
2022-09-09T14:10:35.571Z,21.17
2022-09-09T14:13:01.669Z,21.01
2022-09-09T14:15:27.749Z,20.84
2022-09-09T14:17:53.875Z,20.94
2022-09-09T14:20:19.966Z,20.92
2022-09-09T14:22:46.062Z,20.68
2022-09-09T14:25:12.176Z,20.51
2022-09-09T14:27:38.290Z,20.61
2022-09-09T14:30:04.378Z,20.47
2022-09-09T14:32:30.482Z,20.35
2022-09-09T14:34:56.572Z,20.32
2022-09-09T14:37:22.677Z,20.22
2022-09-09T14:39:48.828Z,20.26
2022-09-09T14:42:14.978Z,20.22
2022-09-09T14:44:41.064Z,20.13
2022-09-09T14:47:07.528Z,20.12
2022-09-09T14:49:33.618Z,19.95
2022-09-09T14:51:59.730Z,19.62
2022-09-09T14:54:25.859Z,19.68
2022-09-09T14:56:51.951Z,19.58
2022-09-09T14:59:18.034Z,19.80
2022-09-09T15:01:44.206Z,19.62
2022-09-09T15:04:10.379Z,19.60
2022-09-09T15:06:36.482Z,19.87
2022-09-09T15:09:02.587Z,19.86
2022-09-09T15:11:28.668Z,20.10
2022-09-09T15:13:54.769Z,20.06
2022-09-09T15:16:20.921Z,20.03
2022-09-09T15:18:47.060Z,20.18
2022-09-09T15:21:13.149Z,20.20
2022-09-09T15:23:39.265Z,19.96
2022-09-09T15:26:05.362Z,19.76
2022-09-09T15:28:31.471Z,19.58
2022-09-09T15:30:57.833Z,19.61
2022-09-09T15:33:23.999Z,19.40
2022-09-09T15:35:50.106Z,19.23
2022-09-09T15:38:16.221Z,19.20
2022-09-09T15:40:42.313Z,19.08
2022-09-09T15:43:08.418Z,19.07
2022-09-09T15:45:34.518Z,19.00
2022-09-09T15:48:00.607Z,18.84
2022-09-09T15:50:26.698Z,18.15
2022-09-09T15:52:53.137Z,17.66
2022-09-09T15:55:19.228Z,17.57
2022-09-09T15:57:45.317Z,17.92
2022-09-09T16:00:11.444Z,18.04
2022-09-09T16:02:38.116Z,17.93
2022-09-09T16:05:04.311Z,17.84
2022-09-09T16:07:30.414Z,17.88
2022-09-09T16:09:56.493Z,17.90
2022-09-09T16:12:22.583Z,18.07
2022-09-09T16:14:48.701Z,17.81
2022-09-09T16:17:14.811Z,17.80
2022-09-09T16:19:40.905Z,17.86
2022-09-09T16:22:07.024Z,17.91
2022-09-09T16:24:33.166Z,17.98
2022-09-09T16:26:59.264Z,18.05
2022-09-09T16:29:25.376Z,17.95
2022-09-09T16:31:51.470Z,18.03
2022-09-09T16:34:17.548Z,18.09
2022-09-09T16:36:43.661Z,18.04
2022-09-09T16:39:09.746Z,17.88
2022-09-09T16:41:35.833Z,17.91
2022-09-09T16:44:02.442Z,17.84
2022-09-09T16:46:28.664Z,17.87
2022-09-09T16:48:54.881Z,17.83
2022-09-09T16:51:21.000Z,17.72
2022-09-09T16:53:47.094Z,17.75
2022-09-09T16:56:13.180Z,17.73
2022-09-09T16:58:39.311Z,17.61
2022-09-09T17:01:05.415Z,17.73
2022-09-09T17:03:31.508Z,17.76
2022-09-09T17:05:57.613Z,17.70
2022-09-09T17:08:23.696Z,17.71
2022-09-09T17:10:49.800Z,17.72
2022-09-09T17:13:15.905Z,17.73
2022-09-09T17:15:42.017Z,17.68
2022-09-09T17:18:08.137Z,17.62
2022-09-09T17:20:45.994Z,17.48
2022-09-09T17:23:13.196Z,17.48
2022-09-09T17:25:39.305Z,17.55
2022-09-09T17:28:05.402Z,17.58
2022-09-09T17:30:31.503Z,17.61
2022-09-09T17:32:57.624Z,17.53
2022-09-09T17:35:23.870Z,17.35
2022-09-09T17:37:49.970Z,17.38
2022-09-09T17:40:16.139Z,17.33
2022-09-09T17:42:42.303Z,17.31
2022-09-09T17:45:08.434Z,17.34
2022-09-09T17:47:34.538Z,17.29
2022-09-09T17:50:00.664Z,17.47
2022-09-09T17:52:26.753Z,17.34
2022-09-09T17:54:52.862Z,17.28
2022-09-09T17:57:18.976Z,17.30
2022-09-09T17:59:45.088Z,17.22
2022-09-09T18:02:11.775Z,17.00
2022-09-09T18:04:37.898Z,17.02
2022-09-09T18:07:03.992Z,17.07
2022-09-09T18:09:30.102Z,17.01
2022-09-09T18:11:56.215Z,16.98
2022-09-09T18:14:22.311Z,16.80
2022-09-09T18:16:48.445Z,16.79
2022-09-09T18:19:14.584Z,16.76
2022-09-09T18:21:40.687Z,16.72
2022-09-09T18:24:06.803Z,16.69
2022-09-09T18:26:32.897Z,16.70
2022-09-09T18:28:58.989Z,16.76
2022-09-09T18:31:25.252Z,16.90
2022-09-09T18:33:51.413Z,16.78
2022-09-09T18:36:17.522Z,16.70
2022-09-09T18:38:43.631Z,16.58
2022-09-09T18:41:09.721Z,16.66
2022-09-09T18:43:35.818Z,16.55
2022-09-09T18:46:01.981Z,16.31
2022-09-09T18:48:28.096Z,16.31
2022-09-09T18:50:54.186Z,16.23
2022-09-09T18:53:20.295Z,16.42
2022-09-09T18:55:46.386Z,16.40
2022-09-09T18:58:12.473Z,16.34
2022-09-09T19:00:38.597Z,16.27
2022-09-09T19:03:04.696Z,16.27
2022-09-09T19:05:30.788Z,16.29
2022-09-09T19:07:56.890Z,16.29
2022-09-09T19:10:22.992Z,16.27
2022-09-09T19:12:49.259Z,16.20
2022-09-09T19:15:15.435Z,16.28
2022-09-09T19:17:41.521Z,16.23
2022-09-09T19:20:07.654Z,16.11
2022-09-09T19:22:34.125Z,16.18
2022-09-09T19:25:00.240Z,16.21
2022-09-09T19:27:26.350Z,16.21
2022-09-09T19:29:56.792Z,16.16
2022-09-09T19:32:52.320Z,16.23
2022-09-09T19:35:09.293Z,16.15
2022-09-09T19:37:35.396Z,16.24
2022-09-09T19:40:01.547Z,16.14
2022-09-09T19:42:27.723Z,16.07
2022-09-09T19:44:53.829Z,15.93
2022-09-09T19:47:19.934Z,16.00
2022-09-09T19:49:47.429Z,15.92
2022-09-09T19:52:13.792Z,15.75
2022-09-09T19:54:39.900Z,15.66
2022-09-09T19:57:06.012Z,15.73
2022-09-09T19:59:32.105Z,15.74
2022-09-09T20:01:58.257Z,15.77
2022-09-09T20:04:24.474Z,15.65
2022-09-09T20:06:50.573Z,15.76
2022-09-09T20:09:16.662Z,15.75
2022-09-09T20:11:43.066Z,15.81
2022-09-09T20:14:09.161Z,15.81
2022-09-09T20:16:35.268Z,15.72
2022-09-09T20:19:01.395Z,15.58
2022-09-09T20:21:27.484Z,15.64
2022-09-09T20:23:53.602Z,15.49
2022-09-09T20:26:20.070Z,15.58
2022-09-09T20:28:46.153Z,15.60
2022-09-09T20:31:12.274Z,15.59
2022-09-09T20:33:38.434Z,15.66
2022-09-09T20:36:04.525Z,15.59
2022-09-09T20:38:30.717Z,15.62
2022-09-09T20:40:56.840Z,15.64
2022-09-09T20:43:22.913Z,15.59
2022-09-09T20:45:49.011Z,15.47
2022-09-09T20:48:15.127Z,15.58
2022-09-09T20:50:41.214Z,15.49
2022-09-09T20:53:07.294Z,15.55
2022-09-09T20:55:33.932Z,15.45
2022-09-09T20:58:00.024Z,15.47
2022-09-09T21:00:26.108Z,15.47
2022-09-09T21:02:52.211Z,15.48
2022-09-09T21:05:22.022Z,15.50
2022-09-09T21:07:50.122Z,15.49
2022-09-09T21:10:16.224Z,15.48
2022-09-09T21:12:42.318Z,15.45
2022-09-09T21:15:08.400Z,15.45
2022-09-09T21:17:34.503Z,15.48
2022-09-09T21:20:00.581Z,15.46
2022-09-09T21:22:26.672Z,15.53
2022-09-09T21:24:52.782Z,15.48
2022-09-09T21:27:18.912Z,15.59
2022-09-09T21:29:45.025Z,15.62
2022-09-09T21:32:11.134Z,15.57
2022-09-09T21:34:37.243Z,15.49
2022-09-09T21:37:03.333Z,15.58
2022-09-09T21:39:29.580Z,15.57
2022-09-09T21:41:55.690Z,15.64
2022-09-09T21:44:21.790Z,15.60
2022-09-09T21:46:47.971Z,15.68
2022-09-09T21:49:14.083Z,15.61
2022-09-09T21:51:40.168Z,15.62
2022-09-09T21:54:06.278Z,15.68
2022-09-09T21:56:32.361Z,15.79
2022-09-09T21:58:58.456Z,15.77
2022-09-09T22:01:24.662Z,15.73
2022-09-09T22:03:50.765Z,15.73
2022-09-09T22:06:16.849Z,15.70
2022-09-09T22:08:42.955Z,15.77
2022-09-09T22:11:09.050Z,15.67
2022-09-09T22:13:35.147Z,15.74
2022-09-09T22:16:01.302Z,15.77
2022-09-09T22:18:27.420Z,15.74
2022-09-09T22:20:53.511Z,15.84
2022-09-09T22:23:19.910Z,15.90
2022-09-09T22:25:46.005Z,15.88
2022-09-09T22:28:12.110Z,15.83
2022-09-09T22:30:38.252Z,15.85
2022-09-09T22:33:04.336Z,15.82
2022-09-09T22:35:30.520Z,15.81
2022-09-09T22:37:56.630Z,15.76
2022-09-09T22:40:22.736Z,15.74
2022-09-09T22:42:52.518Z,15.81
2022-09-09T22:45:19.128Z,15.81
2022-09-09T22:47:45.246Z,15.85
2022-09-09T22:50:11.344Z,15.85
2022-09-09T22:52:37.455Z,15.80
2022-09-09T22:55:03.562Z,15.88
2022-09-09T22:57:29.654Z,15.84
2022-09-09T22:59:55.757Z,15.88
2022-09-09T23:02:21.860Z,15.90
2022-09-09T23:04:47.961Z,15.84
2022-09-09T23:07:14.057Z,15.87
2022-09-09T23:09:40.142Z,15.93
2022-09-09T23:12:06.240Z,15.94
2022-09-09T23:14:32.336Z,15.89
2022-09-09T23:16:58.464Z,15.92
2022-09-09T23:19:24.558Z,15.92
2022-09-09T23:21:50.712Z,15.96
2022-09-09T23:24:16.824Z,15.97
2022-09-09T23:26:42.911Z,16.19
2022-09-09T23:29:09.018Z,15.94
2022-09-09T23:31:35.122Z,15.99
2022-09-09T23:34:01.230Z,15.99
2022-09-09T23:36:27.321Z,16.03
2022-09-09T23:38:53.415Z,16.11
2022-09-09T23:41:19.518Z,16.04
2022-09-09T23:43:45.624Z,16.03
2022-09-09T23:46:11.757Z,15.96
2022-09-09T23:48:37.953Z,16.04
2022-09-09T23:51:04.143Z,16.18
2022-09-09T23:53:30.245Z,16.25
2022-09-09T23:55:56.334Z,16.15
2022-09-09T23:58:22.497Z,15.97
